LTAY/DNZ METAR and TAF weather

Enter ICAO airport designator
Station Type Date Time Source
LTAY METAR 2021/09/20 04:50 UTC NOAA

LTAY 200450Z 11001KT CAVOK 15/11 Q1020


Station Type Date Time Source
LTAY Decoded METAR 2021/09/20 04:50 UTC NOAA

Cardak, Turkey (LTAY) 37-47N 029-42E
Sep 20, 2021 - 12:50 AM EDT / 2021.09.20 0450 UTC
Wind: from the ESE (110 degrees) at 1 MPH (1 KT):0
Visibility: greater than 7 mile(s):0
Temperature: 59 F (15 C)
Dew Point: 51 F (11 C)
Relative Humidity: 76%
Pressure (altimeter): 30.12 in. Hg (1020 hPa)
ob: LTAY 200450Z 11001KT CAVOK 15/11 Q1020
cycle: 5

Station Type Date Time Source
LTAY TAF UTC NOAA

Error!

Example: see airport list